Time;durP1;ratioP1;P1;durP2;ratioP2;P2;SDS_P1;SDS_P2;PMS_P1;PMS_P2;Temp;Humidity;BMP_temperature;BMP_pressure;BME280_temperature;BME280_humidity;BME280_pressure;Samples;Min_cycle;Max_cycle;Signal;HPM_P1;HPM_P2
2023/04/29 00:01:05;;;;;;;44.92;21.45;;;;;;;-144.73;100.00;54420.00;5052510;28;20028;-74
2023/04/29 00:03:31;;;;;;;38.22;21.85;;;;;;;-144.73;100.00;54415.91;5054875;28;20044;-74
2023/04/29 00:06:00;;;;;;;42.95;20.65;;;;;;;-144.73;100.00;54440.53;5055422;28;20040;-74
2023/04/29 00:08:26;;;;;;;32.72;21.02;;;;;;;-144.73;100.00;54440.53;5046958;28;20048;-74
2023/04/29 00:10:51;;;;;;;35.45;20.45;;;;;;;-144.73;100.00;54448.75;5051974;28;20074;-74
2023/04/29 00:13:16;;;;;;;43.50;23.23;;;;;;;-144.73;100.00;54395.38;5051747;28;20021;-74
2023/04/29 00:15:42;;;;;;;34.53;20.65;;;;;;;-144.73;100.00;54381.00;5052066;28;20036;-74
2023/04/29 00:18:09;;;;;;;39.45;22.65;;;;;;;-144.73;100.00;54393.34;5049697;28;20025;-74
2023/04/29 00:20:35;;;;;;;40.90;24.98;;;;;;;-144.73;100.00;54424.13;5052458;28;20437;-73
2023/04/29 00:23:01;;;;;;;43.70;24.63;;;;;;;-144.73;100.00;54428.22;5056499;28;20019;-74
2023/04/29 00:25:26;;;;;;;39.75;23.20;;;;;;;-144.73;100.00;54374.84;5046833;28;20025;-73
2023/04/29 00:27:52;;;;;;;43.42;23.75;;;;;;;-144.73;100.00;54407.69;5048983;28;20428;-74
2023/04/29 00:30:17;;;;;;;45.53;26.40;;;;;;;-144.73;100.00;54442.59;5051167;28;20044;-74
2023/04/29 00:32:43;;;;;;;43.75;24.70;;;;;;;-144.73;100.00;54424.13;5051167;28;20032;-74
2023/04/29 00:35:09;;;;;;;38.25;23.33;;;;;;;-144.73;100.00;54411.81;5051392;28;20085;-72
2023/04/29 00:37:35;;;;;;;36.42;24.80;;;;;;;-144.73;100.00;54415.91;5051661;28;20024;-73
2023/04/29 00:40:01;;;;;;;46.22;25.27;;;;;;;-144.73;100.00;54424.13;5051076;28;20043;-73
2023/04/29 00:42:28;;;;;;;47.13;26.05;;;;;;;-144.73;100.00;54424.13;5052175;28;20032;-72
2023/04/29 00:44:53;;;;;;;44.53;25.48;;;;;;;-144.73;100.00;54436.44;5051273;28;20037;-72
2023/04/29 00:47:18;;;;;;;48.53;25.02;;;;;;;-144.73;100.00;54407.69;5052069;28;20028;-73
2023/04/29 00:49:44;;;;;;;44.80;24.73;;;;;;;-144.73;100.00;54432.31;5050622;28;20036;-72
2023/04/29 00:52:13;;;;;;;33.08;23.20;;;;;;;-144.73;100.00;54420.00;5051170;28;20036;-74
2023/04/29 00:54:39;;;;;;;46.50;26.55;;;;;;;-144.73;100.00;54436.44;5074250;28;20040;-74
2023/04/29 00:57:06;;;;;;;39.58;24.98;;;;;;;-144.73;100.00;54434.38;5051674;28;20027;-74
2023/04/29 00:59:32;;;;;;;45.28;25.67;;;;;;;-144.73;100.00;54407.69;5050755;28;20032;-74
2023/04/29 01:02:02;;;;;;;40.42;24.42;;;;;;;-144.73;100.00;54454.91;5051523;28;20051;-75
2023/04/29 01:04:28;;;;;;;41.65;25.33;;;;;;;-144.73;100.00;54391.28;5057977;28;20032;-74
2023/04/29 01:07:17;;;;;;;44.10;27.17;;;;;;;-144.73;100.00;54395.38;5055049;28;20028;-75
2023/04/29 01:10:00;;;;;;;50.97;28.15;;;;;;;-144.73;100.00;54452.84;5057175;28;20120;-74
2023/04/29 01:12:35;;;;;;;51.47;27.80;;;;;;;-144.73;100.00;54432.31;5050474;28;20028;-73
2023/04/29 01:15:11;;;;;;;49.90;26.85;;;;;;;-144.73;100.00;54440.53;5061459;28;20028;-73
2023/04/29 01:17:41;;;;;;;52.15;27.50;;;;;;;-144.73;100.00;54452.84;5052652;28;20032;-74
2023/04/29 01:20:09;;;;;;;50.42;28.48;;;;;;;-144.73;100.00;54420.00;5068487;28;20406;-74
2023/04/29 01:22:35;;;;;;;42.08;25.13;;;;;;;-144.73;100.00;54383.06;5051274;28;20021;-74
2023/04/29 01:25:00;;;;;;;46.28;27.27;;;;;;;-144.73;100.00;54411.81;5050571;28;20036;-73
2023/04/29 01:27:35;;;;;;;51.92;28.08;;;;;;;-144.73;100.00;54448.75;5069300;28;20032;-74
2023/04/29 01:30:20;;;;;;;47.72;26.08;;;;;;;-144.73;100.00;54415.91;5050524;28;20036;-74
2023/04/29 01:33:08;;;;;;;54.53;27.63;;;;;;;-144.73;100.00;54473.38;5050747;28;20032;-74
2023/04/29 01:35:44;;;;;;;51.28;28.45;;;;;;;-144.73;100.00;54432.31;5075727;28;20068;-74
2023/04/29 01:38:22;;;;;;;51.78;27.13;;;;;;;-144.73;100.00;54436.44;5067704;28;20040;-74
2023/04/29 01:40:58;;;;;;;51.20;29.52;;;;;;;-144.73;100.00;54415.91;5082326;28;20052;-74
2023/04/29 01:43:27;;;;;;;46.83;28.50;;;;;;;-144.73;100.00;54432.31;5054329;28;20116;-74
2023/04/29 01:45:55;;;;;;;48.97;29.60;;;;;;;-144.73;100.00;54407.69;5070084;28;20054;-74
2023/04/29 01:48:21;;;;;;;54.28;31.25;;;;;;;-144.73;100.00;54411.81;5072635;28;20508;-74
2023/04/29 01:50:46;;;;;;;58.08;30.50;;;;;;;-144.73;100.00;54407.69;5073633;28;20040;-74
2023/04/29 01:53:11;;;;;;;66.65;32.20;;;;;;;-144.73;100.00;54440.53;5073725;28;20024;-74
2023/04/29 01:55:37;;;;;;;55.85;32.53;;;;;;;-144.73;100.00;54426.16;5062297;28;20024;-74
2023/04/29 01:58:02;;;;;;;55.13;32.00;;;;;;;-144.73;100.00;54391.28;5055468;28;20043;-74
2023/04/29 02:00:27;;;;;;;63.33;33.47;;;;;;;-144.73;100.00;54387.19;5054856;28;20024;-74
2023/04/29 02:02:53;;;;;;;64.75;34.33;;;;;;;-144.73;100.00;54420.00;5072390;28;20064;-74
2023/04/29 02:05:19;;;;;;;74.60;38.20;;;;;;;-144.73;100.00;54399.50;5053744;28;20048;-74
2023/04/29 02:07:44;;;;;;;65.53;35.60;;;;;;;-144.73;100.00;54456.97;5075185;28;20069;-74
2023/04/29 02:10:10;;;;;;;58.83;33.20;;;;;;;-144.73;100.00;54407.69;5053978;28;20043;-74
2023/04/29 02:12:36;;;;;;;57.55;29.98;;;;;;;-144.73;100.00;54436.44;5054838;28;20031;-72
2023/04/29 02:15:01;;;;;;;50.65;29.77;;;;;;;-144.73;100.00;54456.97;5054239;28;20025;-72
2023/04/29 02:17:27;;;;;;;58.75;31.48;;;;;;;-144.73;100.00;54407.69;5054365;28;20028;-73
2023/04/29 02:19:53;;;;;;;52.08;32.90;;;;;;;-144.73;100.00;54465.16;5071431;28;20127;-72
2023/04/29 02:22:19;;;;;;;58.55;31.52;;;;;;;-144.73;100.00;54428.22;5054711;28;20044;-73
2023/04/29 02:24:45;;;;;;;52.85;30.52;;;;;;;-144.73;100.00;54424.13;5071116;28;20040;-73
2023/04/29 02:27:10;;;;;;;52.47;31.02;;;;;;;-144.73;100.00;54493.91;5055039;28;20103;-73
2023/04/29 02:29:36;;;;;;;57.38;31.13;;;;;;;-144.73;100.00;54428.22;5054265;28;20453;-73
2023/04/29 02:32:01;;;;;;;52.03;32.35;;;;;;;-144.73;100.00;54399.50;5054711;28;20032;-72
2023/04/29 02:34:26;;;;;;;53.42;30.42;;;;;;;-144.73;100.00;54438.50;5054448;28;20032;-72
2023/04/29 02:36:52;;;;;;;55.83;29.80;;;;;;;-144.73;100.00;54456.97;5068480;28;20028;-73
2023/04/29 02:39:18;;;;;;;60.63;34.30;;;;;;;-144.73;100.00;54424.13;5071437;28;20032;-72
2023/04/29 02:41:44;;;;;;;62.58;33.38;;;;;;;-144.73;100.00;54420.00;5054717;28;20044;-72
2023/04/29 02:44:09;;;;;;;61.53;31.15;;;;;;;-144.73;100.00;54440.53;5053346;28;20041;-72
2023/04/29 02:46:35;;;;;;;60.28;32.88;;;;;;;-144.73;100.00;54428.22;5072212;28;20050;-72
2023/04/29 02:49:01;;;;;;;65.15;35.03;;;;;;;-144.73;100.00;54452.84;5053028;28;20037;-73
2023/04/29 02:51:27;;;;;;;60.80;33.85;;;;;;;-144.73;100.00;54440.53;5053770;28;20065;-73
2023/04/29 02:53:52;;;;;;;56.20;31.52;;;;;;;-144.73;100.00;54432.31;5050664;28;20211;-73
2023/04/29 02:56:18;;;;;;;66.13;34.72;;;;;;;-144.73;100.00;54461.06;5053768;28;20033;-72
2023/04/29 02:58:43;;;;;;;61.17;32.55;;;;;;;-144.73;100.00;54448.75;5069586;28;20090;-73
2023/04/29 03:01:09;;;;;;;66.15;36.03;;;;;;;-144.73;100.00;54432.31;5071237;28;20103;-72
2023/04/29 03:03:34;;;;;;;70.15;34.75;;;;;;;-144.73;100.00;54444.66;5053674;28;20036;-73
2023/04/29 03:05:59;;;;;;;59.75;32.53;;;;;;;-144.73;100.00;54465.16;5053372;28;20032;-72
2023/04/29 03:08:25;;;;;;;56.83;31.42;;;;;;;-144.73;100.00;54454.91;5065652;28;20104;-72
2023/04/29 03:10:50;;;;;;;59.67;31.92;;;;;;;-144.73;100.00;54399.50;5051577;28;20368;-72
2023/04/29 03:13:15;;;;;;;71.72;35.83;;;;;;;-144.73;100.00;54456.97;5071637;28;20044;-73
2023/04/29 03:15:41;;;;;;;61.03;33.17;;;;;;;-144.73;100.00;54432.31;5069688;28;20028;-73
2023/04/29 03:18:06;;;;;;;54.08;32.92;;;;;;;-144.73;100.00;54436.44;5051510;28;20051;-73
2023/04/29 03:20:32;;;;;;;62.60;32.65;;;;;;;-144.73;100.00;54432.31;5060081;28;20052;-73
2023/04/29 03:22:58;;;;;;;53.08;30.27;;;;;;;-144.73;100.00;54428.22;5053542;28;20036;-73
2023/04/29 03:25:24;;;;;;;61.00;34.80;;;;;;;-144.73;100.00;54391.28;5045760;28;20044;-73
2023/04/29 03:27:49;;;;;;;58.63;30.75;;;;;;;-144.73;100.00;54395.38;5040966;28;20051;-73
2023/04/29 03:30:14;;;;;;;60.55;31.27;;;;;;;-144.73;100.00;54362.53;5052474;28;20036;-73
2023/04/29 03:32:40;;;;;;;66.75;34.45;;;;;;;-144.73;100.00;54428.22;5053416;28;20035;-73
2023/04/29 03:35:05;;;;;;;57.08;31.63;;;;;;;-144.73;100.00;54452.84;5052035;28;20024;-73
2023/04/29 03:37:31;;;;;;;64.05;31.50;;;;;;;-144.73;100.00;54411.81;5053272;28;20039;-73
2023/04/29 03:39:56;;;;;;;59.38;30.17;;;;;;;-144.73;100.00;54448.75;5051493;28;20041;-73
2023/04/29 03:42:22;;;;;;;53.55;29.52;;;;;;;-144.73;100.00;54473.38;5053261;28;20047;-73
2023/04/29 03:44:47;;;;;;;54.90;29.35;;;;;;;-144.73;100.00;54415.91;5052421;28;20433;-73
2023/04/29 03:47:12;;;;;;;57.67;30.35;;;;;;;-144.73;100.00;54456.97;5070198;28;20028;-73
2023/04/29 03:49:38;;;;;;;60.80;32.15;;;;;;;-144.73;100.00;54444.66;5051819;28;20040;-73
2023/04/29 03:52:03;;;;;;;69.63;34.00;;;;;;;-144.73;100.00;54446.69;5069961;28;20040;-73
2023/04/29 03:54:29;;;;;;;58.75;30.52;;;;;;;-144.73;100.00;54428.22;5046788;28;20029;-73
2023/04/29 03:56:55;;;;;;;68.50;31.45;;;;;;;-144.73;100.00;54436.44;5070514;28;20055;-73
2023/04/29 03:59:20;;;;;;;66.75;35.95;;;;;;;-144.73;100.00;54436.44;5042460;28;20479;-73
2023/04/29 04:01:45;;;;;;;60.03;33.53;;;;;;;-144.73;100.00;54448.75;5052350;28;20016;-73
2023/04/29 04:04:11;;;;;;;58.13;31.58;;;;;;;-144.73;100.00;54428.22;5052399;28;20036;-73
2023/04/29 04:06:36;;;;;;;57.30;31.05;;;;;;;-144.73;100.00;54444.66;5051272;28;20021;-73
2023/04/29 04:09:01;;;;;;;58.00;31.83;;;;;;;-144.73;100.00;54428.22;5067608;28;20551;-73
2023/04/29 04:11:27;;;;;;;56.78;32.80;;;;;;;-144.73;100.00;54436.44;5049214;28;20495;-72
2023/04/29 04:13:52;;;;;;;58.85;32.15;;;;;;;-144.73;100.00;54389.22;5051724;28;20028;-72
2023/04/29 04:16:17;;;;;;;59.47;34.13;;;;;;;-144.73;100.00;54432.31;5046944;28;20017;-73
2023/04/29 04:18:43;;;;;;;63.63;32.70;;;;;;;-144.73;100.00;54448.75;5069478;28;20035;-72
2023/04/29 04:21:09;;;;;;;53.90;30.05;;;;;;;-144.73;100.00;54465.16;5051548;28;20024;-72
2023/04/29 04:23:35;;;;;;;65.25;33.58;;;;;;;-144.73;100.00;54424.13;5067089;28;20041;-73
2023/04/29 04:26:00;;;;;;;65.78;33.38;;;;;;;-144.73;100.00;54452.84;5070150;28;20501;-73
2023/04/29 04:28:25;;;;;;;59.20;33.47;;;;;;;-144.73;100.00;54467.22;5051538;28;20051;-72
2023/04/29 04:30:51;;;;;;;58.83;31.35;;;;;;;-144.73;100.00;54461.06;5048517;28;20074;-72
2023/04/29 04:33:16;;;;;;;61.50;31.88;;;;;;;-144.73;100.00;54467.22;5051748;28;20020;-73
2023/04/29 04:35:42;;;;;;;63.65;33.20;;;;;;;-144.73;100.00;54467.22;5069622;28;20015;-73
2023/04/29 04:38:08;;;;;;;57.72;32.80;;;;;;;-144.73;100.00;54465.16;5079611;28;20080;-73
2023/04/29 04:40:33;;;;;;;53.35;31.58;;;;;;;-144.73;100.00;54469.28;5069556;28;20016;-72
2023/04/29 04:42:59;;;;;;;59.50;32.10;;;;;;;-144.73;100.00;54452.84;5051332;28;20078;-72
2023/04/29 04:45:24;;;;;;;50.55;29.50;;;;;;;-144.73;100.00;54444.66;5069472;28;20022;-73
2023/04/29 04:47:50;;;;;;;56.63;29.52;;;;;;;-144.73;100.00;54432.31;5048471;28;20020;-73
2023/04/29 04:50:15;;;;;;;60.35;31.58;;;;;;;-144.73;100.00;54407.69;5051544;28;20029;-72
2023/04/29 04:52:41;;;;;;;51.22;30.13;;;;;;;-144.73;100.00;54420.00;5068893;28;20394;-74
2023/04/29 04:55:07;;;;;;;50.80;29.90;;;;;;;-144.73;100.00;54420.00;5068986;28;20120;-72
2023/04/29 04:57:32;;;;;;;50.35;31.50;;;;;;;-144.73;100.00;54440.53;5069587;28;20032;-73
2023/04/29 04:59:58;;;;;;;54.25;31.83;;;;;;;-144.73;100.00;54428.22;5050440;28;20036;-72
2023/04/29 05:02:23;;;;;;;55.80;30.58;;;;;;;-144.73;100.00;54448.75;5066435;28;20024;-74
2023/04/29 05:04:48;;;;;;;52.17;29.27;;;;;;;-144.73;100.00;54430.28;5050688;28;20032;-73
2023/04/29 05:07:14;;;;;;;59.22;32.10;;;;;;;-144.73;100.00;54440.53;5066012;28;20052;-72
2023/04/29 05:09:39;;;;;;;53.80;30.23;;;;;;;-144.73;100.00;54436.44;5050710;28;20123;-74
2023/04/29 05:12:05;;;;;;;51.55;29.33;;;;;;;-144.73;100.00;54436.44;5068347;28;20035;-72
2023/04/29 05:14:30;;;;;;;47.67;27.40;;;;;;;-144.73;100.00;54444.66;5051052;28;20028;-73
2023/04/29 05:16:59;;;;;;;55.50;28.35;;;;;;;-144.73;100.00;54424.13;5065187;28;20104;-72
2023/04/29 05:19:24;;;;;;;51.88;28.25;;;;;;;-144.73;100.00;54440.53;5050326;28;20123;-73
2023/04/29 05:21:50;;;;;;;44.88;28.40;;;;;;;-144.73;100.00;54448.75;5050787;28;20096;-72
2023/04/29 05:24:16;;;;;;;51.15;29.30;;;;;;;-144.73;100.00;54444.66;5050880;28;20040;-73
2023/04/29 05:26:42;;;;;;;44.25;25.73;;;;;;;-144.73;100.00;54461.06;5079811;28;20021;-73
2023/04/29 05:29:09;;;;;;;49.35;26.65;;;;;;;-144.73;100.00;54477.47;5050183;28;20040;-72
2023/04/29 05:31:34;;;;;;;42.67;24.42;;;;;;;-144.73;100.00;54456.97;5068450;28;20021;-73
2023/04/29 05:34:00;;;;;;;42.97;25.10;;;;;;;-144.73;100.00;54448.75;5050513;28;20062;-72
2023/04/29 05:36:26;;;;;;;51.25;24.08;;;;;;;-144.73;100.00;54452.84;5050820;28;20032;-73
2023/04/29 05:38:52;;;;;;;39.72;21.70;;;;;;;-144.73;100.00;54448.75;5050198;28;20028;-73
2023/04/29 05:41:17;;;;;;;46.47;21.88;;;;;;;-144.73;100.00;54448.75;5050986;28;20026;-73
2023/04/29 05:43:43;;;;;;;41.97;21.30;;;;;;;-144.73;100.00;54465.16;5068213;28;20033;-73
2023/04/29 05:46:08;;;;;;;30.38;19.65;;;;;;;-144.73;100.00;54452.84;5047963;28;20035;-72
2023/04/29 05:48:34;;;;;;;36.47;19.17;;;;;;;-144.73;100.00;54399.50;5066432;28;20029;-73
2023/04/29 05:50:59;;;;;;;30.98;19.20;;;;;;;-144.73;100.00;54452.84;5048158;28;20036;-73
2023/04/29 05:53:25;;;;;;;36.03;20.90;;;;;;;-144.73;100.00;54424.13;5050078;28;20517;-73
2023/04/29 05:55:50;;;;;;;32.92;17.92;;;;;;;-144.73;100.00;54448.75;5050738;28;20494;-72
2023/04/29 05:58:16;;;;;;;35.30;18.10;;;;;;;-144.73;100.00;54452.84;5044256;28;20115;-73
2023/04/29 06:00:42;;;;;;;32.05;16.80;;;;;;;-144.73;100.00;54456.97;5047388;28;20024;-73
2023/04/29 06:03:09;;;;;;;35.13;16.58;;;;;;;-144.73;100.00;54444.66;5064329;28;20067;-73
2023/04/29 06:05:35;;;;;;;28.70;16.27;;;;;;;-144.73;100.00;54473.38;5048277;28;20025;-74
2023/04/29 06:08:01;;;;;;;27.67;15.57;;;;;;;-144.73;100.00;54407.69;5067915;28;20157;-73
2023/04/29 06:10:26;;;;;;;25.13;14.38;;;;;;;-144.73;100.00;54452.84;5050163;28;20103;-74
2023/04/29 06:12:51;;;;;;;31.02;14.85;;;;;;;-144.73;100.00;54424.13;5071940;28;20033;-74
2023/04/29 06:15:17;;;;;;;27.50;15.88;;;;;;;-144.73;100.00;54467.22;5045980;28;20082;-74
2023/04/29 06:17:42;;;;;;;22.98;13.52;;;;;;;-144.73;100.00;54473.38;5069166;28;20028;-73
2023/04/29 06:20:08;;;;;;;28.55;14.65;;;;;;;-144.73;100.00;54456.97;5067254;28;20064;-74
2023/04/29 06:22:33;;;;;;;24.38;13.60;;;;;;;-144.73;100.00;54446.69;5050667;28;20078;-74
2023/04/29 06:24:59;;;;;;;24.17;12.43;;;;;;;-144.73;100.00;54456.97;5049924;28;20044;-74
2023/04/29 06:27:24;;;;;;;31.15;14.00;;;;;;;-144.73;100.00;54428.22;5069345;28;20085;-70
2023/04/29 06:29:49;;;;;;;24.90;12.80;;;;;;;-144.73;100.00;54420.00;5069101;28;20033;-70
2023/04/29 06:32:15;;;;;;;24.63;14.15;;;;;;;-144.73;100.00;54395.38;5058056;28;20024;-70
2023/04/29 06:34:40;;;;;;;23.33;13.10;;;;;;;-144.73;100.00;54415.91;5055754;28;20083;-70
2023/04/29 06:37:06;;;;;;;25.08;13.63;;;;;;;-144.73;100.00;54454.91;5059896;28;20035;-70
2023/04/29 06:39:31;;;;;;;26.10;12.52;;;;;;;-144.73;100.00;54407.69;5054403;28;20029;-70
2023/04/29 06:41:57;;;;;;;23.08;12.35;;;;;;;-144.73;100.00;54424.13;5054184;28;20025;-71
2023/04/29 06:44:23;;;;;;;30.88;14.02;;;;;;;-144.73;100.00;54424.13;5055554;28;20044;-70
2023/04/29 06:46:51;;;;;;;24.25;13.05;;;;;;;-144.73;100.00;54452.84;5057013;28;20036;-70
2023/04/29 06:49:17;;;;;;;22.70;11.85;;;;;;;-144.73;100.00;54491.84;5073048;28;20518;-70
2023/04/29 06:51:42;;;;;;;23.02;12.95;;;;;;;-144.73;100.00;54440.53;5050086;28;20036;-71
2023/04/29 06:54:08;;;;;;;26.30;11.73;;;;;;;-144.73;100.00;54413.84;5052991;28;20127;-71
2023/04/29 06:56:33;;;;;;;25.23;11.65;;;;;;;-144.73;100.00;54456.97;5057447;28;20111;-70
2023/04/29 06:58:59;;;;;;;28.85;13.63;;;;;;;-144.73;100.00;54448.75;5055535;28;20064;-70
2023/04/29 07:01:25;;;;;;;27.33;12.85;;;;;;;-144.73;100.00;54463.13;5063399;28;20471;-71
2023/04/29 07:03:51;;;;;;;31.42;14.02;;;;;;;-144.73;100.00;54428.22;5042838;28;20519;-70
2023/04/29 07:06:16;;;;;;;24.58;11.43;;;;;;;-144.73;100.00;54454.91;5056662;28;20031;-71
2023/04/29 07:08:42;;;;;;;24.38;12.25;;;;;;;-144.73;100.00;54454.91;5069103;28;20037;-70
2023/04/29 07:11:07;;;;;;;23.38;11.27;;;;;;;-144.73;100.00;54477.47;5056429;28;20113;-71
2023/04/29 07:13:32;;;;;;;22.67;11.38;;;;;;;-144.73;100.00;54442.59;5069485;28;20449;-71
2023/04/29 07:15:58;;;;;;;22.92;10.88;;;;;;;-144.73;100.00;54383.06;5055323;28;20067;-71
2023/04/29 07:18:23;;;;;;;24.17;10.30;;;;;;;-144.73;100.00;54436.44;5044534;28;20123;-71
2023/04/29 07:20:50;;;;;;;19.92;9.93;;;;;;;-144.73;100.00;54420.00;5043739;28;20025;-71
2023/04/29 07:23:16;;;;;;;19.98;10.88;;;;;;;-144.73;100.00;54428.22;5046390;28;20088;-71
2023/04/29 07:25:41;;;;;;;25.33;10.20;;;;;;;-144.73;100.00;54432.31;5046432;28;20142;-71
2023/04/29 07:28:09;;;;;;;18.15;9.65;;;;;;;-144.73;100.00;54444.66;5047843;28;20032;-71
2023/04/29 07:30:35;;;;;;;18.65;8.85;;;;;;;-144.73;100.00;54422.06;5075272;28;20040;-70
2023/04/29 07:33:00;;;;;;;22.15;9.07;;;;;;;-144.73;100.00;54407.69;5044942;28;20059;-71
2023/04/29 07:35:26;;;;;;;17.02;7.63;;;;;;;-144.73;100.00;54428.22;5064368;28;20013;-70
2023/04/29 07:37:51;;;;;;;17.58;9.10;;;;;;;-144.73;100.00;54407.69;5041274;28;20027;-70
2023/04/29 07:40:17;;;;;;;19.95;8.68;;;;;;;-144.73;100.00;54428.22;5060332;28;20131;-71
2023/04/29 07:42:42;;;;;;;15.80;8.90;;;;;;;-144.73;100.00;54424.13;5046003;28;20024;-70
2023/04/29 07:45:08;;;;;;;27.13;9.35;;;;;;;-144.73;100.00;54395.38;5044197;28;20082;-71
2023/04/29 07:47:33;;;;;;;14.02;7.82;;;;;;;-144.73;100.00;54383.06;5061661;28;20017;-70
2023/04/29 07:49:59;;;;;;;15.80;8.35;;;;;;;-144.73;97.09;54364.59;5060273;28;20078;-71
2023/04/29 07:52:25;;;;;;;20.48;8.10;;;;;;;-144.73;98.30;54452.84;5036950;28;20090;-71
2023/04/29 07:54:50;;;;;;;20.48;8.10;;;;;;;-144.73;97.62;54407.69;5042205;28;20084;-71
2023/04/29 07:57:16;;;;;;;14.75;7.25;;;;;;;-144.73;96.65;54420.00;5060451;28;20111;-71
2023/04/29 07:59:41;;;;;;;15.73;8.43;;;;;;;-144.73;96.66;54415.91;5034776;28;20040;-71
2023/04/29 08:02:06;;;;;;;15.90;8.38;;;;;;;-144.73;95.78;54370.75;5038205;28;20032;-71
2023/04/29 08:04:32;;;;;;;16.67;8.02;;;;;;;-144.73;95.68;54395.38;5039081;28;20037;-71
2023/04/29 08:06:58;;;;;;;16.77;8.23;;;;;;;-144.73;94.58;54415.91;5038737;28;20048;-71
2023/04/29 08:09:23;;;;;;;20.13;8.02;;;;;;;-144.73;93.58;54411.81;5034275;28;20055;-71
2023/04/29 08:11:49;;;;;;;14.27;7.05;;;;;;;-144.73;93.54;54397.44;5036089;28;20080;-70
2023/04/29 08:14:14;;;;;;;14.55;7.03;;;;;;;-144.73;92.65;54342.03;5043512;28;20033;-71
2023/04/29 08:16:40;;;;;;;16.05;6.88;;;;;;;-144.73;90.40;54389.22;5038611;28;20052;-71
2023/04/29 08:19:05;;;;;;;18.70;7.78;;;;;;;-144.73;91.95;54354.34;5035303;28;20395;-71
2023/04/29 08:21:31;;;;;;;14.60;7.97;;;;;;;-144.73;92.30;54391.28;5061824;28;20020;-71
2023/04/29 08:23:56;;;;;;;17.35;8.25;;;;;;;-144.73;91.23;54391.28;5053601;28;20041;-71
2023/04/29 08:26:22;;;;;;;18.90;8.35;;;;;;;-144.73;91.11;54407.69;5061933;28;20024;-71
2023/04/29 08:28:48;;;;;;;22.20;7.68;;;;;;;-144.73;90.90;54378.97;5078266;28;20097;-71
2023/04/29 08:31:17;;;;;;;14.60;7.63;;;;;;;-144.73;88.67;54395.38;5044345;28;20047;-71
2023/04/29 08:33:43;;;;;;;19.85;8.10;;;;;;;-144.73;90.25;54387.19;5060066;28;20063;-71
2023/04/29 08:36:08;;;;;;;16.48;8.27;;;;;;;-144.73;90.64;54409.75;5054259;28;20025;-70
2023/04/29 08:38:34;;;;;;;15.32;7.45;;;;;;;-144.73;88.06;54395.38;5043558;28;20025;-70
2023/04/29 08:41:00;;;;;;;16.08;7.28;;;;;;;-144.73;88.99;54387.19;5038080;28;20025;-70
2023/04/29 08:43:26;;;;;;;14.98;6.97;;;;;;;-144.73;87.88;54366.66;5041685;28;20048;-71
2023/04/29 08:45:52;;;;;;;14.20;7.20;;;;;;;-144.73;86.80;54407.69;5037644;28;20020;-71
2023/04/29 08:48:18;;;;;;;19.70;6.95;;;;;;;-144.73;84.91;54374.84;5058503;28;20028;-71
2023/04/29 08:50:43;;;;;;;14.23;7.55;;;;;;;-144.73;82.86;54378.97;5043575;28;20043;-70
2023/04/29 08:53:11;;;;;;;19.60;7.45;;;;;;;-144.73;82.64;54387.19;5072975;28;20123;-70
2023/04/29 08:55:41;;;;;;;16.95;7.30;;;;;;;-144.73;81.19;54348.19;5062394;28;20417;-70
2023/04/29 08:58:08;;;;;;;16.00;8.55;;;;;;;-144.73;81.45;54374.84;5043701;28;20028;-70
2023/04/29 09:00:34;;;;;;;12.85;6.85;;;;;;;-144.73;82.04;54391.28;5052560;28;20032;-70
2023/04/29 09:03:09;;;;;;;17.45;7.35;;;;;;;-144.73;79.50;54376.91;5042902;28;20092;-69
2023/04/29 09:05:35;;;;;;;15.18;7.32;;;;;;;-144.73;80.09;54366.66;5043694;28;20021;-70
2023/04/29 09:08:02;;;;;;;15.60;8.07;;;;;;;-144.73;80.76;54420.00;5050309;28;20020;-70
2023/04/29 09:10:27;;;;;;;17.42;7.60;;;;;;;-144.73;81.79;54407.69;5043212;28;20110;-70
2023/04/29 09:12:59;;;;;;;18.33;8.00;;;;;;;-144.73;82.75;54395.38;5038510;28;20056;-70
2023/04/29 09:15:25;;;;;;;17.92;8.50;;;;;;;-144.73;82.39;54378.97;5042549;28;20049;-71
2023/04/29 09:17:50;;;;;;;19.35;9.20;;;;;;;-144.73;83.82;54383.06;5052391;28;20029;-70
2023/04/29 09:20:19;;;;;;;19.30;11.25;;;;;;;-144.73;85.23;54374.84;5036332;28;20033;-71
2023/04/29 09:23:06;;;;;;;16.75;8.68;;;;;;;-144.73;86.02;54372.81;5056543;28;20127;-71
2023/04/29 09:25:31;;;;;;;22.67;10.13;;;;;;;-144.73;87.35;54366.66;5042400;28;20124;-71
2023/04/29 09:27:57;;;;;;;26.58;10.52;;;;;;;-144.73;86.71;54415.91;5042587;28;20135;-71
2023/04/29 09:30:22;;;;;;;14.13;9.88;;;;;;;-144.73;88.59;54407.69;5056589;28;20044;-71
2023/04/29 09:33:07;;;;;;;14.68;9.07;;;;;;;-144.73;85.12;54366.66;5044466;28;20021;-71
2023/04/29 09:35:33;;;;;;;19.10;8.57;;;;;;;-144.73;84.18;54374.84;5061775;28;20033;-71
2023/04/29 09:38:15;;;;;;;15.48;9.27;;;;;;;-144.73;81.06;54432.31;5039193;28;20212;-71
2023/04/29 09:40:42;;;;;;;14.30;7.75;;;;;;;-144.73;81.99;54407.69;5045492;28;20040;-71
2023/04/29 09:43:26;;;;;;;18.23;8.57;;;;;;;-144.73;80.00;54362.53;5034768;28;20127;-71
2023/04/29 09:45:51;;;;;;;16.80;9.90;;;;;;;-144.73;81.93;54358.44;5034802;28;20025;-70
2023/04/29 09:48:17;;;;;;;17.58;9.45;;;;;;;-144.73;81.06;54370.75;5040756;28;20033;-70
2023/04/29 09:50:43;;;;;;;16.25;9.05;;;;;;;-144.73;80.45;54368.69;5058562;28;20028;-70
2023/04/29 09:53:10;;;;;;;19.42;8.40;;;;;;;-144.73;78.85;54397.44;5036053;28;20039;-70
2023/04/29 09:55:56;;;;;;;14.15;8.55;;;;;;;-144.73;75.98;54337.91;5042917;28;20032;-70
2023/04/29 09:58:39;;;;;;;22.77;8.30;;;;;;;-144.73;74.58;54362.53;5032465;28;20029;-70
2023/04/29 10:01:05;;;;;;;15.70;8.82;;;;;;;-144.73;73.82;54407.69;5049712;28;20035;-70
2023/04/29 10:03:36;;;;;;;17.05;8.63;;;;;;;-144.73;73.14;54383.06;5039932;28;20033;-71
2023/04/29 10:06:05;;;;;;;16.07;6.73;;;;;;;-144.73;70.86;54362.53;5072065;28;20012;-70
2023/04/29 10:08:32;;;;;;;12.73;7.20;;;;;;;-144.73;68.08;54366.66;5057699;28;20113;-70
2023/04/29 10:11:04;;;;;;;18.23;7.63;;;;;;;-144.73;67.44;54321.50;5044101;28;20020;-70
2023/04/29 10:13:30;;;;;;;19.88;8.60;;;;;;;-144.73;68.16;54370.75;5052412;28;20036;-70
2023/04/29 10:16:22;;;;;;;18.83;7.30;;;;;;;-144.73;67.56;54362.53;5041093;28;20021;-70
2023/04/29 10:18:50;;;;;;;;;;;;;;;-144.73;65.34;54362.53;5072007;28;20035;-70
2023/04/29 10:21:20;;;;;;;19.25;7.35;;;;;;;-144.73;66.92;54358.44;5065877;28;19958;-71
2023/04/29 10:23:47;;;;;;;14.02;7.20;;;;;;;-144.73;67.18;54391.28;5051740;28;20038;-72
2023/04/29 10:26:15;;;;;;;11.13;6.20;;;;;;;-144.73;64.17;54374.84;5059323;28;20047;-70
2023/04/29 10:28:44;;;;;;;11.88;5.20;;;;;;;-144.73;59.93;54354.34;5049439;28;20071;-70
2023/04/29 10:31:12;;;;;;;14.45;5.85;;;;;;;-144.73;56.21;54383.06;5048023;28;20021;-70
2023/04/29 10:33:42;;;;;;;16.75;6.72;;;;;;;-144.73;57.96;54333.81;5050213;28;20127;-70
2023/04/29 10:36:08;;;;;;;12.35;5.78;;;;;;;-144.73;59.54;54352.28;5056830;28;20106;-70
2023/04/29 10:38:40;;;;;;;15.15;6.38;;;;;;;-144.73;58.26;54325.59;5047615;28;20044;-72
2023/04/29 10:41:09;;;;;;;;;;;;;;;-144.73;59.81;54366.66;5049840;28;20047;-71
2023/04/29 10:43:35;;;;;;;27.35;12.55;;;;;;;-144.73;59.35;54313.28;5042255;28;20294;-70
2023/04/29 10:46:25;;;;;;;17.30;6.35;;;;;;;-144.73;60.50;54389.22;5044898;28;20033;-71
2023/04/29 10:48:56;;;;;;;15.38;6.32;;;;;;;-144.73;59.21;54358.44;5044615;28;20158;-69
2023/04/29 10:51:33;;;;;;;13.30;6.45;;;;;;;-144.73;59.71;54358.44;5046675;28;20047;-70
2023/04/29 10:54:12;;;;;;;12.85;7.13;;;;;;;-144.73;59.05;54333.81;5046000;28;20113;-70
2023/04/29 10:56:47;;;;;;;17.60;8.13;;;;;;;-144.73;59.11;54362.53;5064999;28;20028;-70
2023/04/29 10:59:14;;;;;;;20.40;8.05;;;;;;;-144.73;58.70;54370.75;5050614;28;20032;-70